Time;durP1;ratioP1;P1;durP2;ratioP2;P2;SDS_P1;SDS_P2;PMS_P1;PMS_P2;Temp;Humidity;BMP_temperature;BMP_pressure;BME280_temperature;BME280_humidity;BME280_pressure;Samples;Min_cycle;Max_cycle;Signal;HPM_P1;HPM_P2
2020/12/22 00:02:03;;;;;;;19.60;12.02;;;7.10;99.90;;;;;;4962417;28;20106;-67
2020/12/22 00:04:30;;;;;;;19.17;12.63;;;7.10;99.90;;;;;;4971368;28;20058;-69
2020/12/22 00:06:57;;;;;;;17.25;11.75;;;7.10;99.90;;;;;;4967108;28;20402;-69
2020/12/22 00:09:24;;;;;;;19.90;12.18;;;7.10;99.90;;;;;;4973043;28;20050;-69
2020/12/22 00:11:51;;;;;;;18.85;11.73;;;7.10;99.90;;;;;;4965749;28;20049;-68
2020/12/22 00:14:18;;;;;;;17.27;10.93;;;7.10;99.90;;;;;;4972562;28;20054;-69
2020/12/22 00:16:44;;;;;;;18.65;11.75;;;7.10;99.90;;;;;;4974479;28;20659;-67
2020/12/22 00:19:11;;;;;;;17.48;11.43;;;7.10;99.90;;;;;;4974949;28;20246;-67
2020/12/22 00:21:37;;;;;;;17.42;11.55;;;7.10;99.90;;;;;;4976482;28;20402;-67
2020/12/22 00:24:06;;;;;;;17.10;11.38;;;7.10;99.90;;;;;;4979757;28;20051;-67
2020/12/22 00:26:32;;;;;;;16.02;11.20;;;7.10;99.90;;;;;;4972924;28;20106;-69
2020/12/22 00:28:59;;;;;;;18.15;11.43;;;7.10;99.90;;;;;;4972613;28;20043;-66
2020/12/22 00:31:26;;;;;;;18.67;11.50;;;7.10;99.90;;;;;;4971736;28;20059;-67
2020/12/22 00:33:52;;;;;;;19.15;11.90;;;7.10;99.90;;;;;;4975815;28;20043;-67
2020/12/22 00:36:18;;;;;;;16.95;11.38;;;7.10;99.90;;;;;;4954249;28;20046;-68
2020/12/22 00:38:45;;;;;;;20.88;12.10;;;7.10;99.90;;;;;;4977665;28;20065;-67
2020/12/22 00:41:13;;;;;;;19.38;11.98;;;7.10;99.90;;;;;;4981800;28;20137;-67
2020/12/22 00:43:41;;;;;;;17.75;11.80;;;7.10;99.90;;;;;;4966859;28;20360;-69
2020/12/22 00:46:08;;;;;;;18.02;12.32;;;7.20;99.90;;;;;;4972477;28;20509;-68
2020/12/22 00:48:34;;;;;;;17.58;12.07;;;7.20;99.90;;;;;;4972607;28;20051;-68
2020/12/22 00:51:01;;;;;;;17.83;11.32;;;7.20;99.90;;;;;;4972029;28;20050;-67
2020/12/22 00:53:27;;;;;;;19.42;11.63;;;7.20;99.90;;;;;;4972858;28;20054;-68
2020/12/22 00:55:54;;;;;;;20.63;12.65;;;7.30;99.90;;;;;;4953738;28;20046;-68
2020/12/22 00:58:20;;;;;;;19.55;11.95;;;7.30;99.90;;;;;;4972574;28;20108;-67
2020/12/22 01:00:47;;;;;;;18.70;12.07;;;7.20;99.90;;;;;;4971503;28;20134;-68
2020/12/22 01:03:13;;;;;;;20.20;13.23;;;7.20;99.90;;;;;;4972718;28;20077;-68
2020/12/22 01:05:40;;;;;;;18.88;13.23;;;7.30;99.90;;;;;;4971731;28;20053;-68
2020/12/22 01:08:06;;;;;;;21.15;13.13;;;7.20;99.90;;;;;;4972405;28;20055;-68
2020/12/22 01:10:33;;;;;;;19.48;13.20;;;7.20;99.90;;;;;;4972490;28;20050;-68
2020/12/22 01:12:59;;;;;;;19.38;13.02;;;7.20;99.90;;;;;;4972107;28;20057;-68
2020/12/22 01:15:26;;;;;;;17.92;12.60;;;7.20;99.90;;;;;;4968331;28;20147;-68
2020/12/22 01:17:52;;;;;;;20.40;13.60;;;7.30;99.90;;;;;;4972570;28;20050;-68
2020/12/22 01:20:19;;;;;;;19.65;12.82;;;7.30;99.90;;;;;;4972145;28;20054;-68
2020/12/22 01:22:46;;;;;;;20.80;13.30;;;7.30;99.90;;;;;;4968101;28;20501;-68
2020/12/22 01:25:12;;;;;;;16.85;11.98;;;7.30;99.90;;;;;;4955083;28;20059;-66
2020/12/22 01:27:38;;;;;;;18.20;12.05;;;7.30;99.90;;;;;;4970968;28;20053;-67
2020/12/22 01:30:05;;;;;;;18.30;12.55;;;7.30;99.90;;;;;;4972200;28;20055;-67
2020/12/22 01:32:31;;;;;;;17.73;12.73;;;7.30;99.90;;;;;;4968426;28;20051;-67
2020/12/22 01:34:58;;;;;;;18.35;13.20;;;7.30;99.90;;;;;;4972134;28;20057;-66
2020/12/22 01:37:24;;;;;;;19.58;13.55;;;7.40;99.90;;;;;;4971715;28;20054;-66
2020/12/22 01:39:51;;;;;;;21.02;14.00;;;7.40;99.90;;;;;;4971968;28;20051;-66
2020/12/22 01:42:17;;;;;;;21.30;14.27;;;7.40;99.90;;;;;;4971583;28;20054;-67
2020/12/22 01:44:44;;;;;;;18.33;12.13;;;7.40;99.90;;;;;;4971931;28;20051;-67
2020/12/22 01:47:10;;;;;;;18.52;12.77;;;7.40;99.90;;;;;;4971477;28;20409;-67
2020/12/22 01:49:37;;;;;;;18.30;12.18;;;7.40;99.90;;;;;;4971955;28;20055;-67
2020/12/22 01:52:03;;;;;;;18.63;13.20;;;7.40;99.90;;;;;;4971414;28;20047;-68
2020/12/22 01:54:31;;;;;;;18.98;13.63;;;7.40;99.90;;;;;;4969864;28;20043;-65
2020/12/22 01:56:57;;;;;;;19.08;13.05;;;7.40;99.90;;;;;;4971721;28;20078;-68
2020/12/22 01:59:24;;;;;;;22.33;14.57;;;7.50;99.90;;;;;;4971544;28;20058;-67
2020/12/22 02:01:53;;;;;;;18.42;13.13;;;7.40;99.90;;;;;;4970981;28;20050;-67
2020/12/22 02:04:20;;;;;;;20.13;13.52;;;7.50;99.90;;;;;;4954874;28;20081;-67
2020/12/22 02:06:47;;;;;;;21.63;14.02;;;7.40;99.90;;;;;;4971352;28;20457;-66
2020/12/22 02:09:14;;;;;;;24.10;14.10;;;7.40;99.90;;;;;;4971907;28;20085;-69
2020/12/22 02:11:42;;;;;;;22.17;14.07;;;7.50;99.90;;;;;;4970767;28;20473;-68
2020/12/22 02:14:10;;;;;;;21.80;14.73;;;7.50;99.90;;;;;;4971876;28;20053;-66
2020/12/22 02:16:38;;;;;;;21.48;14.57;;;7.40;99.90;;;;;;4963594;28;20053;-70
2020/12/22 02:19:20;;;;;;;23.92;15.18;;;7.50;99.90;;;;;;4971958;28;20054;-69
2020/12/22 02:21:46;;;;;;;21.30;13.85;;;7.40;99.90;;;;;;4970051;28;20424;-69
2020/12/22 02:24:13;;;;;;;22.77;14.95;;;7.40;99.90;;;;;;4971064;28;20042;-70
2020/12/22 02:26:39;;;;;;;21.50;14.20;;;7.40;99.90;;;;;;4971301;28;20110;-70
2020/12/22 02:29:05;;;;;;;23.73;15.48;;;7.40;99.90;;;;;;4967826;28;20394;-70
2020/12/22 02:31:32;;;;;;;22.02;14.95;;;7.40;99.90;;;;;;4971139;28;20054;-69
2020/12/22 02:33:58;;;;;;;23.23;15.52;;;7.40;99.90;;;;;;4971859;28;20418;-69
2020/12/22 02:36:25;;;;;;;22.80;15.40;;;7.50;99.90;;;;;;4970895;28;20042;-70
2020/12/22 02:38:51;;;;;;;24.33;15.63;;;7.50;99.90;;;;;;4973134;28;20054;-69
2020/12/22 02:41:19;;;;;;;22.77;15.68;;;7.50;99.90;;;;;;4974485;28;20055;-71
2020/12/22 02:43:45;;;;;;;23.83;15.35;;;7.50;99.90;;;;;;4969117;28;20047;-68
2020/12/22 02:46:12;;;;;;;24.45;16.25;;;7.60;99.90;;;;;;4955472;29;20055;-68
2020/12/22 02:48:38;;;;;;;23.05;15.27;;;7.60;99.90;;;;;;4963645;28;20046;-70
2020/12/22 02:51:05;;;;;;;23.33;15.13;;;7.60;99.90;;;;;;4974845;28;20046;-68
2020/12/22 02:53:31;;;;;;;26.45;16.67;;;7.60;99.90;;;;;;4973446;28;20051;-69
2020/12/22 02:55:58;;;;;;;24.25;15.48;;;7.60;99.90;;;;;;4973869;28;20063;-66
2020/12/22 02:58:24;;;;;;;24.48;14.68;;;7.60;99.90;;;;;;4973219;28;20047;-67
2020/12/22 03:00:51;;;;;;;24.15;14.55;;;7.60;99.90;;;;;;4971886;28;20065;-67
2020/12/22 03:03:18;;;;;;;21.38;14.45;;;7.60;99.90;;;;;;4950617;28;20059;-66
2020/12/22 03:05:44;;;;;;;22.67;16.35;;;7.60;99.90;;;;;;4973524;28;20058;-66
2020/12/22 03:08:11;;;;;;;21.83;13.93;;;7.70;99.90;;;;;;4964218;28;20061;-66
2020/12/22 03:10:39;;;;;;;24.90;15.73;;;7.70;99.90;;;;;;4972100;28;20074;-67
2020/12/22 03:13:05;;;;;;;22.23;15.30;;;7.70;99.90;;;;;;4973411;28;20047;-66
2020/12/22 03:15:32;;;;;;;23.92;14.85;;;7.70;99.90;;;;;;4956181;28;20047;-68
2020/12/22 03:17:58;;;;;;;23.67;16.10;;;7.80;99.90;;;;;;4974516;28;20054;-70
2020/12/22 03:20:25;;;;;;;22.77;14.60;;;7.80;99.90;;;;;;4957203;28;20061;-69
2020/12/22 03:22:52;;;;;;;24.35;15.35;;;7.90;99.90;;;;;;4973140;28;20061;-69
2020/12/22 03:25:19;;;;;;;20.98;13.93;;;7.90;99.90;;;;;;4973010;28;20394;-68
2020/12/22 03:27:45;;;;;;;24.42;15.05;;;8.00;99.90;;;;;;4972840;28;20047;-68
2020/12/22 03:30:14;;;;;;;24.48;15.73;;;8.00;99.90;;;;;;4974871;28;20043;-69
2020/12/22 03:32:42;;;;;;;22.50;14.43;;;8.00;99.90;;;;;;4954871;28;20440;-68
2020/12/22 03:35:10;;;;;;;23.38;15.07;;;8.00;99.90;;;;;;4974013;28;20054;-67
2020/12/22 03:37:37;;;;;;;22.95;14.57;;;8.10;99.90;;;;;;4972338;28;20058;-69
2020/12/22 03:40:08;;;;;;;23.33;15.13;;;8.10;99.90;;;;;;4973506;28;20050;-68
2020/12/22 03:42:35;;;;;;;22.92;14.95;;;8.10;99.90;;;;;;4960970;28;20047;-68
2020/12/22 03:45:03;;;;;;;19.92;13.45;;;8.10;99.90;;;;;;4953955;28;20062;-69
2020/12/22 03:47:30;;;;;;;21.63;13.38;;;8.20;99.90;;;;;;4965317;28;20098;-68
2020/12/22 03:49:57;;;;;;;21.38;14.35;;;8.20;99.90;;;;;;4974118;28;20043;-68
2020/12/22 03:52:23;;;;;;;21.55;13.13;;;8.20;99.90;;;;;;4971427;28;20055;-69
2020/12/22 03:54:50;;;;;;;19.00;13.02;;;8.20;99.90;;;;;;4972038;28;20417;-68
2020/12/22 03:57:16;;;;;;;20.00;13.15;;;8.30;99.90;;;;;;4970111;28;20054;-68
2020/12/22 03:59:43;;;;;;;19.88;12.20;;;8.30;99.90;;;;;;4973479;28;20059;-67
2020/12/22 04:02:10;;;;;;;19.00;12.38;;;8.40;99.90;;;;;;4958690;28;20051;-66
2020/12/22 04:04:37;;;;;;;22.60;12.65;;;8.50;99.90;;;;;;4973207;28;20053;-67
2020/12/22 04:07:05;;;;;;;19.55;11.82;;;8.50;99.90;;;;;;4956052;28;20055;-67
2020/12/22 04:09:32;;;;;;;16.67;11.40;;;8.60;99.90;;;;;;4972931;28;20047;-67
2020/12/22 04:11:58;;;;;;;14.00;9.88;;;8.60;99.90;;;;;;4973089;28;20480;-67
2020/12/22 04:14:25;;;;;;;13.00;9.13;;;8.60;99.90;;;;;;4973690;28;20046;-68
2020/12/22 04:16:51;;;;;;;14.20;9.05;;;8.70;99.90;;;;;;4951295;28;20073;-66
2020/12/22 04:19:18;;;;;;;15.00;8.55;;;8.80;99.90;;;;;;4971981;28;20051;-66
2020/12/22 04:21:46;;;;;;;11.10;6.90;;;8.80;99.90;;;;;;4954966;28;20488;-66
2020/12/22 04:24:13;;;;;;;11.35;6.30;;;8.90;99.90;;;;;;4972828;28;20137;-66
2020/12/22 04:26:39;;;;;;;8.52;6.05;;;9.00;99.90;;;;;;4972395;28;20065;-67
2020/12/22 04:29:06;;;;;;;10.02;5.30;;;9.10;99.90;;;;;;4972490;28;20174;-67
2020/12/22 04:31:32;;;;;;;9.40;5.60;;;9.10;99.90;;;;;;4971044;28;20134;-67
2020/12/22 04:33:59;;;;;;;7.93;4.70;;;9.10;99.90;;;;;;4972473;28;20141;-66
2020/12/22 04:36:26;;;;;;;8.88;4.85;;;9.20;99.90;;;;;;4971833;28;20130;-66
2020/12/22 04:38:54;;;;;;;6.50;4.13;;;9.30;99.90;;;;;;4971967;28;20413;-67
2020/12/22 04:41:22;;;;;;;8.40;4.30;;;9.40;99.90;;;;;;4980492;28;20115;-68
2020/12/22 04:43:50;;;;;;;6.68;3.83;;;9.30;99.90;;;;;;4972673;28;20055;-67
2020/12/22 04:46:22;;;;;;;6.57;3.92;;;9.30;99.90;;;;;;4971482;28;20107;-66
2020/12/22 04:48:54;;;;;;;8.15;4.68;;;9.30;99.90;;;;;;4955525;28;20119;-66
2020/12/22 04:51:25;;;;;;;7.10;4.15;;;9.40;99.90;;;;;;4971063;28;20085;-66
2020/12/22 04:54:07;;;;;;;5.63;3.50;;;9.40;99.90;;;;;;4971129;28;20552;-67
2020/12/22 04:56:36;;;;;;;6.10;3.33;;;9.40;99.90;;;;;;4971767;28;20110;-66
2020/12/22 04:59:03;;;;;;;7.82;3.67;;;9.40;99.90;;;;;;4971588;28;20082;-66
2020/12/22 05:01:32;;;;;;;7.90;3.53;;;9.50;99.90;;;;;;4970348;28;20404;-67
2020/12/22 05:03:59;;;;;;;6.20;3.35;;;9.50;99.90;;;;;;4970490;28;20133;-67
2020/12/22 05:06:25;;;;;;;7.57;3.47;;;9.60;99.90;;;;;;4970659;28;20417;-66
2020/12/22 05:08:52;;;;;;;5.18;3.08;;;9.60;99.90;;;;;;4972068;28;20046;-66
2020/12/22 05:11:18;;;;;;;5.82;3.00;;;9.60;99.90;;;;;;4972219;28;20058;-66
2020/12/22 05:13:48;;;;;;;3.95;2.30;;;9.70;99.90;;;;;;4971635;28;20046;-68
2020/12/22 05:16:14;;;;;;;6.05;2.08;;;9.70;99.90;;;;;;4969395;28;20585;-66
2020/12/22 05:18:41;;;;;;;5.35;2.30;;;9.70;99.90;;;;;;4972611;28;20059;-67
2020/12/22 05:21:18;;;;;;;7.00;2.33;;;9.70;99.90;;;;;;4971603;28;20394;-66
2020/12/22 05:23:47;;;;;;;4.65;1.83;;;9.80;99.90;;;;;;4972445;28;20063;-67
2020/12/22 05:26:20;;;;;;;4.00;1.80;;;9.80;99.90;;;;;;4968715;28;20054;-67
2020/12/22 05:28:46;;;;;;;4.85;1.70;;;9.80;99.90;;;;;;4966138;28;20170;-67
2020/12/22 05:31:14;;;;;;;3.22;1.30;;;9.90;99.90;;;;;;4957851;28;20050;-66
2020/12/22 05:33:46;;;;;;;2.50;1.38;;;9.90;99.90;;;;;;4971573;28;20055;-66
2020/12/22 05:36:13;;;;;;;2.28;1.20;;;9.90;99.90;;;;;;4967995;28;20051;-67
2020/12/22 05:38:43;;;;;;;3.97;1.40;;;10.00;99.90;;;;;;4948260;28;20149;-67
2020/12/22 05:41:09;;;;;;;2.63;1.30;;;10.00;99.90;;;;;;4972027;28;20106;-66
2020/12/22 05:43:40;;;;;;;3.60;1.40;;;9.90;99.90;;;;;;4958359;28;20047;-68
2020/12/22 05:46:08;;;;;;;2.70;1.20;;;10.00;99.90;;;;;;4969993;28;20057;-66
2020/12/22 05:48:35;;;;;;;3.45;1.27;;;10.00;99.90;;;;;;4971817;28;20540;-68
2020/12/22 05:51:07;;;;;;;2.25;1.10;;;10.10;99.90;;;;;;4973671;28;20047;-67
2020/12/22 05:53:41;;;;;;;5.10;1.60;;;10.10;99.90;;;;;;4979156;28;20058;-67
2020/12/22 05:56:18;;;;;;;2.00;1.10;;;10.10;99.90;;;;;;4970779;28;20126;-67
2020/12/22 05:58:45;;;;;;;3.13;1.17;;;10.10;99.90;;;;;;4972153;28;20412;-67
2020/12/22 06:01:12;;;;;;;4.80;1.30;;;10.20;99.90;;;;;;4970943;28;20066;-67
2020/12/22 06:03:42;;;;;;;2.85;1.08;;;10.20;99.90;;;;;;4972282;28;20057;-66
2020/12/22 06:06:09;;;;;;;4.35;1.20;;;10.20;99.90;;;;;;4969850;28;20185;-67
2020/12/22 06:08:37;;;;;;;4.65;1.20;;;10.20;99.90;;;;;;4965440;28;20050;-67
2020/12/22 06:11:11;;;;;;;2.50;1.23;;;10.20;99.90;;;;;;4973898;28;20055;-67
2020/12/22 06:13:37;;;;;;;4.10;1.25;;;10.20;99.90;;;;;;4986053;28;20057;-67
2020/12/22 06:16:13;;;;;;;4.07;1.25;;;10.20;99.90;;;;;;4975153;28;20050;-67
2020/12/22 06:18:40;;;;;;;3.03;1.20;;;10.20;99.90;;;;;;4976110;28;20055;-68
2020/12/22 06:21:07;;;;;;;2.45;1.00;;;10.20;99.90;;;;;;4978372;28;20054;-67
2020/12/22 06:23:34;;;;;;;2.35;1.15;;;10.20;99.90;;;;;;4968702;28;20512;-67
2020/12/22 06:26:04;;;;;;;4.47;1.20;;;10.20;99.90;;;;;;4986187;28;20522;-66
2020/12/22 06:28:31;;;;;;;2.38;1.10;;;10.20;99.90;;;;;;4976405;28;20054;-67
2020/12/22 06:30:58;;;;;;;2.40;1.20;;;10.30;99.90;;;;;;4973111;28;20465;-67
2020/12/22 06:33:37;;;;;;;1.80;1.00;;;10.20;99.90;;;;;;4960070;28;20051;-67
2020/12/22 06:36:07;;;;;;;2.05;1.08;;;10.40;99.90;;;;;;4972999;28;20043;-65
2020/12/22 06:38:57;;;;;;;2.20;1.10;;;10.40;99.90;;;;;;4975714;28;20061;-67
2020/12/22 06:41:33;;;;;;;1.90;0.90;;;10.50;99.90;;;;;;4975139;28;20047;-67
2020/12/22 06:44:13;;;;;;;4.25;1.05;;;10.50;99.90;;;;;;4975743;28;20058;-67
2020/12/22 06:46:45;;;;;;;2.13;1.00;;;10.40;99.90;;;;;;4974560;28;20445;-67
2020/12/22 06:49:13;;;;;;;1.10;0.80;;;10.50;99.90;;;;;;4972462;28;20057;-67
2020/12/22 06:51:41;;;;;;;1.95;1.13;;;10.50;99.90;;;;;;4972967;28;20062;-67
2020/12/22 06:54:14;;;;;;;1.75;1.00;;;10.50;99.90;;;;;;4974562;28;20039;-68
2020/12/22 06:56:47;;;;;;;3.10;1.17;;;10.50;99.90;;;;;;4973229;28;20074;-67
2020/12/22 06:59:53;;;;;;;2.65;1.10;;;10.50;99.90;;;;;;4968227;28;20051;-63
2020/12/22 07:02:35;;;;;;;3.28;1.48;;;10.60;99.90;;;;;;4895313;29;20064;-66
2020/12/22 07:05:02;;;;;;;2.42;1.08;;;10.60;99.90;;;;;;4896487;29;20079;-66
2020/12/22 07:07:55;;;;;;;2.60;1.00;;;10.70;99.90;;;;;;4895213;29;20105;-65
2020/12/22 07:10:22;;;;;;;3.35;1.08;;;10.70;99.90;;;;;;4896243;29;20060;-66
2020/12/22 07:12:50;;;;;;;2.90;0.90;;;10.70;99.90;;;;;;4895982;29;20044;-66
2020/12/22 07:15:19;;;;;;;2.50;0.85;;;10.70;99.90;;;;;;4896127;29;20052;-67
2020/12/22 07:18:13;;;;;;;1.73;1.00;;;10.80;99.90;;;;;;4889337;29;20530;-67
2020/12/22 07:20:41;;;;;;;1.88;0.98;;;10.80;99.90;;;;;;4896013;29;20083;-67
2020/12/22 07:23:12;;;;;;;2.38;1.05;;;10.80;99.90;;;;;;4895712;29;20060;-66
2020/12/22 07:25:40;;;;;;;2.35;1.40;;;10.90;99.90;;;;;;4893220;29;20396;-66
2020/12/22 07:28:09;;;;;;;1.63;1.17;;;10.90;99.90;;;;;;4895319;29;20049;-67
2020/12/22 07:30:36;;;;;;;2.70;1.13;;;11.00;99.90;;;;;;4890399;29;20053;-65
2020/12/22 07:33:04;;;;;;;3.00;0.90;;;10.90;99.90;;;;;;4934040;28;20047;-66
2020/12/22 07:35:32;;;;;;;1.92;0.90;;;11.00;99.90;;;;;;4957186;28;20051;-66
2020/12/22 07:38:06;;;;;;;2.85;1.00;;;11.00;99.90;;;;;;4970233;28;20062;-66
2020/12/22 07:40:38;;;;;;;1.42;0.70;;;11.10;99.90;;;;;;4967492;28;20066;-67
2020/12/22 07:43:13;;;;;;;3.72;1.00;;;11.10;99.90;;;;;;4974284;28;20054;-68
2020/12/22 07:45:50;;;;;;;2.13;0.90;;;11.10;99.90;;;;;;4956518;28;20129;-66
2020/12/22 07:48:17;;;;;;;2.30;1.10;;;11.10;99.90;;;;;;4974185;28;20051;-65
2020/12/22 07:50:51;;;;;;;1.48;0.88;;;11.10;99.90;;;;;;4974222;28;20057;-67
2020/12/22 07:53:17;;;;;;;3.58;1.00;;;11.20;99.90;;;;;;4972829;28;20047;-65
2020/12/22 07:55:44;;;;;;;1.75;0.88;;;11.10;99.90;;;;;;4971833;28;20043;-65
2020/12/22 07:58:13;;;;;;;2.60;1.00;;;11.20;99.90;;;;;;4974239;28;20058;-66
2020/12/22 08:00:40;;;;;;;1.55;0.93;;;11.20;99.90;;;;;;4973707;28;20497;-65
2020/12/22 08:03:17;;;;;;;2.40;0.85;;;11.30;99.90;;;;;;4963356;28;20057;-67
2020/12/22 08:06:00;;;;;;;3.08;1.40;;;11.30;99.90;;;;;;4968531;28;20090;-68
2020/12/22 08:08:27;;;;;;;5.85;1.10;;;11.20;99.90;;;;;;4968394;28;20057;-67
2020/12/22 08:10:53;;;;;;;1.85;0.98;;;11.20;99.90;;;;;;4968647;28;20086;-67
2020/12/22 08:13:25;;;;;;;2.67;1.08;;;11.20;99.90;;;;;;4964282;28;20047;-68
2020/12/22 08:15:52;;;;;;;2.28;1.10;;;11.30;99.90;;;;;;4956092;28;20042;-66
2020/12/22 08:18:19;;;;;;;1.70;0.90;;;11.30;99.90;;;;;;4973994;28;20054;-67
2020/12/22 08:20:47;;;;;;;2.25;0.88;;;11.30;99.90;;;;;;4966439;28;20058;-68
2020/12/22 08:23:20;;;;;;;1.65;1.00;;;11.30;99.90;;;;;;4971047;28;20472;-67
2020/12/22 08:25:49;;;;;;;2.13;1.10;;;11.30;99.90;;;;;;4972230;28;20496;-68
2020/12/22 08:28:26;;;;;;;2.90;1.05;;;11.30;99.90;;;;;;4972033;28;20061;-67
2020/12/22 08:30:54;;;;;;;1.35;0.90;;;11.30;99.90;;;;;;4972394;28;20118;-66
2020/12/22 08:33:22;;;;;;;3.53;1.00;;;11.20;99.90;;;;;;4971404;28;20047;-66
2020/12/22 08:35:50;;;;;;;2.08;0.90;;;11.20;99.90;;;;;;4966252;28;20046;-67
2020/12/22 08:38:24;;;;;;;;;;;11.20;99.90;;;;;;4974086;28;20102;-65
2020/12/22 08:40:55;;;;;;;2.03;0.98;;;11.10;99.90;;;;;;4971721;28;19922;-66
2020/12/22 08:43:23;;;;;;;3.25;1.08;;;11.10;99.90;;;;;;4959496;28;20138;-66
2020/12/22 08:45:51;;;;;;;2.88;1.30;;;11.10;99.90;;;;;;4962519;28;20051;-65
2020/12/22 08:48:17;;;;;;;2.17;1.10;;;11.00;99.90;;;;;;4949400;28;20053;-65
2020/12/22 08:50:51;;;;;;;2.83;1.10;;;11.00;99.90;;;;;;4971704;28;20169;-66
2020/12/22 08:53:37;;;;;;;3.05;0.88;;;11.00;99.90;;;;;;4956905;28;20457;-67
2020/12/22 08:56:11;;;;;;;2.53;1.27;;;11.10;99.90;;;;;;4971292;28;20057;-67
2020/12/22 08:59:10;;;;;;;2.22;1.08;;;11.10;99.90;;;;;;4972709;28;20137;-66
2020/12/22 09:01:45;;;;;;;1.98;0.85;;;11.10;99.90;;;;;;4969722;28;20054;-66
2020/12/22 09:04:14;;;;;;;3.35;1.40;;;11.20;99.90;;;;;;4972506;28;20460;-67
2020/12/22 09:06:47;;;;;;;3.65;1.10;;;11.20;99.90;;;;;;4971255;28;20372;-67
2020/12/22 09:09:22;;;;;;;1.63;0.90;;;11.20;99.90;;;;;;4971312;28;20405;-68
2020/12/22 09:11:49;;;;;;;1.92;0.95;;;11.30;99.90;;;;;;4972028;28;20050;-66
2020/12/22 09:14:18;;;;;;;2.35;1.10;;;11.30;99.90;;;;;;4970508;28;20043;-66
2020/12/22 09:16:48;;;;;;;1.63;1.00;;;11.40;99.90;;;;;;4970871;28;20373;-67
2020/12/22 09:19:17;;;;;;;1.83;0.90;;;11.40;99.90;;;;;;4971914;28;20386;-66
2020/12/22 09:21:43;;;;;;;2.47;0.95;;;11.40;99.90;;;;;;4972147;28;20401;-65
2020/12/22 09:24:16;;;;;;;2.25;0.90;;;11.50;99.90;;;;;;4971026;28;20488;-66
2020/12/22 09:27:07;;;;;;;2.15;1.08;;;11.60;99.90;;;;;;4971865;28;20043;-66
2020/12/22 09:29:37;;;;;;;2.05;1.00;;;11.60;99.90;;;;;;4970801;28;20042;-65
2020/12/22 09:32:05;;;;;;;1.60;0.88;;;11.70;99.90;;;;;;4971538;28;20043;-64
2020/12/22 09:34:33;;;;;;;2.17;0.80;;;11.80;99.90;;;;;;4971613;28;20135;-66
2020/12/22 09:37:02;;;;;;;2.25;0.90;;;11.80;99.90;;;;;;4970750;28;20409;-67
2020/12/22 09:39:30;;;;;;;1.58;0.90;;;11.80;99.90;;;;;;4971033;28;20065;-67
2020/12/22 09:41:57;;;;;;;2.17;0.98;;;11.90;99.90;;;;;;4963975;28;20089;-65
2020/12/22 09:44:24;;;;;;;1.25;0.70;;;11.90;99.90;;;;;;4946600;28;20046;-65
2020/12/22 09:46:53;;;;;;;1.92;0.82;;;11.80;99.90;;;;;;4970733;28;20505;-64
2020/12/22 09:49:20;;;;;;;1.83;0.98;;;11.90;99.90;;;;;;4962012;28;20441;-67
2020/12/22 09:51:48;;;;;;;1.20;0.70;;;11.90;99.90;;;;;;4968299;28;20133;-65
2020/12/22 09:54:18;;;;;;;2.10;0.90;;;11.90;99.90;;;;;;4964995;28;20524;-67
2020/12/22 09:56:49;;;;;;;3.03;1.30;;;11.90;99.90;;;;;;4968662;28;20051;-65
2020/12/22 09:59:17;;;;;;;2.25;1.10;;;11.90;99.90;;;;;;4952758;28;20061;-66
2020/12/22 10:01:44;;;;;;;3.63;1.02;;;11.90;99.90;;;;;;4971365;28;20050;-65
2020/12/22 10:04:11;;;;;;;2.97;0.80;;;11.90;99.90;;;;;;4970512;28;20055;-64
2020/12/22 10:06:39;;;;;;;2.75;0.70;;;12.00;99.90;;;;;;4969744;28;20047;-64
2020/12/22 10:09:06;;;;;;;2.00;0.90;;;12.10;99.90;;;;;;4952063;28;20061;-66
2020/12/22 10:11:34;;;;;;;2.38;0.90;;;12.10;99.90;;;;;;4970810;28;20058;-65
2020/12/22 10:14:05;;;;;;;1.50;0.90;;;12.10;99.90;;;;;;4970613;28;20058;-66
2020/12/22 10:16:33;;;;;;;2.78;1.27;;;12.10;99.90;;;;;;4971157;28;20069;-65
2020/12/22 10:19:00;;;;;;;2.33;1.02;;;12.00;99.90;;;;;;4970694;28;20145;-66
2020/12/22 10:21:26;;;;;;;2.03;1.00;;;11.90;99.90;;;;;;4970804;28;20051;-65
2020/12/22 10:23:59;;;;;;;1.92;0.90;;;11.90;99.90;;;;;;4970106;28;20125;-67
2020/12/22 10:26:27;;;;;;;2.33;0.90;;;11.80;99.90;;;;;;4971885;28;20766;-66
2020/12/22 10:28:54;;;;;;;2.08;1.17;;;11.80;99.90;;;;;;4968985;28;20121;-67
2020/12/22 10:31:22;;;;;;;2.47;1.40;;;11.90;99.90;;;;;;4970805;28;20054;-65
2020/12/22 10:33:49;;;;;;;1.52;0.65;;;11.90;99.90;;;;;;4965360;28;20433;-64
2020/12/22 10:36:18;;;;;;;1.83;0.85;;;11.90;99.90;;;;;;4951982;28;20065;-64
2020/12/22 10:38:49;;;;;;;1.40;0.80;;;11.90;99.90;;;;;;4972038;28;20524;-64
2020/12/22 10:41:16;;;;;;;2.10;1.10;;;12.00;99.90;;;;;;4965714;28;20075;-66
2020/12/22 10:43:42;;;;;;;2.35;0.90;;;12.00;99.90;;;;;;4971943;28;20383;-66
2020/12/22 10:46:09;;;;;;;1.77;0.90;;;12.10;99.90;;;;;;4969662;28;20062;-66
2020/12/22 10:48:36;;;;;;;3.85;0.80;;;12.10;99.90;;;;;;4969785;28;20481;-64
2020/12/22 10:51:04;;;;;;;3.75;0.82;;;12.20;99.90;;;;;;4970658;28;20055;-66
2020/12/22 10:53:30;;;;;;;1.05;0.73;;;12.20;99.90;;;;;;4953870;28;20047;-66
2020/12/22 10:55:58;;;;;;;2.03;1.00;;;12.20;99.90;;;;;;4969790;28;20404;-66
2020/12/22 10:58:24;;;;;;;2.22;0.93;;;12.30;99.90;;;;;;4969803;28;20051;-66
2020/12/22 11:00:51;;;;;;;1.73;0.80;;;12.40;99.90;;;;;;4973010;28;20059;-67
2020/12/22 11:03:20;;;;;;;0.80;0.65;;;12.50;99.90;;;;;;4972878;28;20268;-66
2020/12/22 11:08:40;;;;;;;3.30;0.98;;;12.50;99.90;;;;;;4973010;28;20054;-65
2020/12/22 11:11:08;;;;;;;2.05;1.05;;;12.50;99.90;;;;;;4973848;28;20051;-66
2020/12/22 11:13:35;;;;;;;2.10;0.85;;;12.60;99.90;;;;;;4956898;28;20057;-66
2020/12/22 11:16:05;;;;;;;2.25;1.00;;;12.60;99.90;;;;;;4974400;28;20457;-66
2020/12/22 11:18:35;;;;;;;1.75;0.80;;;12.60;99.90;;;;;;4973941;28;20058;-66
2020/12/22 11:21:07;;;;;;;3.85;1.42;;;12.60;99.90;;;;;;4973271;28;20745;-66
2020/12/22 11:23:46;;;;;;;2.63;0.77;;;12.60;99.90;;;;;;4970980;28;20055;-66
2020/12/22 11:26:21;;;;;;;2.53;1.08;;;12.70;99.90;;;;;;4965504;28;20054;-66
2020/12/22 11:28:49;;;;;;;2.67;1.00;;;12.70;99.90;;;;;;4973033;28;20046;-66
2020/12/22 11:31:15;;;;;;;1.45;0.75;;;12.70;99.90;;;;;;4972216;28;20450;-66
2020/12/22 11:33:43;;;;;;;2.28;1.00;;;12.70;99.90;;;;;;4972941;28;20054;-67
2020/12/22 11:36:16;;;;;;;1.85;0.95;;;12.70;99.90;;;;;;4973056;28;20059;-66
2020/12/22 11:38:44;;;;;;;1.25;0.70;;;12.70;99.90;;;;;;4974035;28;20082;-67
2020/12/22 11:41:11;;;;;;;4.03;0.82;;;12.70;99.90;;;;;;4972696;28;20122;-65
2020/12/22 11:43:37;;;;;;;1.08;0.70;;;12.70;99.90;;;;;;4960776;28;20051;-65
2020/12/22 11:46:08;;;;;;;0.73;0.60;;;12.80;99.90;;;;;;4961740;28;20055;-66
2020/12/22 11:48:40;;;;;;;1.60;0.80;;;12.70;99.90;;;;;;4954048;29;20043;-67
2020/12/22 11:51:06;;;;;;;2.72;0.80;;;12.70;99.90;;;;;;4964003;28;20046;-69
2020/12/22 11:53:34;;;;;;;2.00;1.02;;;12.70;99.90;;;;;;4973040;28;20043;-65
2020/12/22 11:56:05;;;;;;;2.08;0.70;;;12.60;99.90;;;;;;4972555;28;20057;-68
2020/12/22 11:58:31;;;;;;;3.80;0.88;;;12.60;99.90;;;;;;4973877;28;20117;-66
2020/12/22 12:00:58;;;;;;;1.48;0.70;;;12.60;99.90;;;;;;4973836;28;20051;-67
2020/12/22 12:03:24;;;;;;;2.10;0.80;;;12.60;99.90;;;;;;4973682;28;20054;-68
2020/12/22 12:05:51;;;;;;;1.27;0.60;;;12.60;99.90;;;;;;4972780;28;20043;-68
2020/12/22 12:08:18;;;;;;;3.13;0.93;;;12.60;99.90;;;;;;4972987;28;20489;-68
2020/12/22 12:10:45;;;;;;;2.33;0.93;;;12.60;99.90;;;;;;4972594;28;20591;-68
2020/12/22 12:13:11;;;;;;;1.38;0.80;;;12.60;99.90;;;;;;4972454;28;20099;-68
2020/12/22 12:15:38;;;;;;;1.98;0.85;;;12.60;99.90;;;;;;4972617;28;20045;-67
2020/12/22 12:18:04;;;;;;;2.78;0.90;;;12.70;99.90;;;;;;4972388;28;20069;-68
2020/12/22 12:20:31;;;;;;;1.60;0.70;;;12.70;99.90;;;;;;4973295;28;20061;-68
2020/12/22 12:22:58;;;;;;;3.53;0.85;;;12.80;99.90;;;;;;4968511;28;20043;-69
2020/12/22 12:25:24;;;;;;;1.40;0.73;;;12.70;99.90;;;;;;4971576;28;20053;-66
2020/12/22 12:27:50;;;;;;;1.27;0.80;;;12.70;99.90;;;;;;4972493;28;20409;-66
2020/12/22 12:30:17;;;;;;;1.73;0.70;;;12.70;99.90;;;;;;4971530;28;20054;-68
2020/12/22 12:32:44;;;;;;;1.63;0.88;;;12.70;99.90;;;;;;4971387;28;20126;-68
2020/12/22 12:35:10;;;;;;;2.05;0.77;;;12.60;99.90;;;;;;4970914;28;20054;-68
2020/12/22 12:37:37;;;;;;;1.33;0.70;;;12.60;99.90;;;;;;4968336;28;20050;-67
2020/12/22 12:40:05;;;;;;;1.92;1.08;;;12.50;99.90;;;;;;4972226;28;20478;-66
2020/12/22 12:42:31;;;;;;;1.98;0.85;;;12.60;99.90;;;;;;4971744;28;20054;-68
2020/12/22 12:44:58;;;;;;;2.10;1.05;;;12.60;99.90;;;;;;4971310;28;20059;-67
2020/12/22 12:47:24;;;;;;;2.28;1.00;;;12.60;99.90;;;;;;4972413;28;20055;-68
2020/12/22 12:49:53;;;;;;;2.38;0.90;;;12.60;99.90;;;;;;4972792;28;20047;-67
2020/12/22 12:52:19;;;;;;;1.25;0.80;;;12.60;99.90;;;;;;4969937;28;20058;-68
2020/12/22 12:54:46;;;;;;;4.68;2.03;;;12.60;99.90;;;;;;4971511;28;20054;-68
2020/12/22 12:57:12;;;;;;;2.28;0.90;;;12.60;99.90;;;;;;4971004;28;20066;-68